Hamar, North Dakota
Current Conditions -  °F | °C
As of 5:55 AM on Friday 19 Dec 2014 (Local Time) from KDVL Reporting Station
Overcast Overcast  
Wind Chill: 16°   Ceiling: 400
Heat Index: 25°   Visibility: 4mi
Dew Point: 18°   Wind: 8mph
Humidity: 74%   Direction: 170°S
Pressure: 29.96"   Gusts: NA
Location:  47.7742°N, 98.5041°W
Report Text: KDVL 191155Z AUTO 17007KT 4SM BKN004 OVC012 M04/M08 A2996 RMK AO1 11040 21060 57014
Loading
Personal Weather Stations






























Interactive Weather Map New forecast layout! Learn more

10-Day Weather Forecast

Advertisements
Track Severe Weather on mobile